sensor_id;sensor_type;location;lat;lon;timestamp;pressure;altitude;pressure_sealevel;temperature
17142;BMP180;32805;53.556;9.944;2022-11-04T00:00:53;99839.00;;;12.30
17142;BMP180;32805;53.556;9.944;2022-11-04T00:03:21;99843.00;;;12.20
17142;BMP180;32805;53.556;9.944;2022-11-04T00:05:51;99835.00;;;12.00
17142;BMP180;32805;53.556;9.944;2022-11-04T00:08:23;99797.00;;;11.90
17142;BMP180;32805;53.556;9.944;2022-11-04T00:10:53;99790.00;;;12.00
17142;BMP180;32805;53.556;9.944;2022-11-04T00:13:46;99791.00;;;12.00
17142;BMP180;32805;53.556;9.944;2022-11-04T00:16:16;99802.00;;;12.00
17142;BMP180;32805;53.556;9.944;2022-11-04T00:19:02;99811.00;;;12.00
17142;BMP180;32805;53.556;9.944;2022-11-04T00:21:33;99786.00;;;12.00
17142;BMP180;32805;53.556;9.944;2022-11-04T00:24:21;99788.00;;;12.00
17142;BMP180;32805;53.556;9.944;2022-11-04T00:27:07;99765.00;;;12.00
17142;BMP180;32805;53.556;9.944;2022-11-04T00:29:54;99770.00;;;12.00
17142;BMP180;32805;53.556;9.944;2022-11-04T00:32:25;99760.00;;;12.00
17142;BMP180;32805;53.556;9.944;2022-11-04T00:35:11;99781.00;;;11.90
17142;BMP180;32805;53.556;9.944;2022-11-04T00:37:41;99804.00;;;12.00
17142;BMP180;32805;53.556;9.944;2022-11-04T00:40:12;99806.00;;;12.10
17142;BMP180;32805;53.556;9.944;2022-11-04T00:42:42;99822.00;;;12.20
17142;BMP180;32805;53.556;9.944;2022-11-04T00:45:12;99807.00;;;12.30
17142;BMP180;32805;53.556;9.944;2022-11-04T00:47:39;99800.00;;;12.20
17142;BMP180;32805;53.556;9.944;2022-11-04T00:50:08;99812.00;;;12.20
17142;BMP180;32805;53.556;9.944;2022-11-04T00:52:37;99796.00;;;12.00
17142;BMP180;32805;53.556;9.944;2022-11-04T00:55:06;99779.00;;;12.00
17142;BMP180;32805;53.556;9.944;2022-11-04T00:57:33;99799.00;;;11.90
17142;BMP180;32805;53.556;9.944;2022-11-04T01:00:02;99783.00;;;12.10
17142;BMP180;32805;53.556;9.944;2022-11-04T01:02:31;99799.00;;;11.90
17142;BMP180;32805;53.556;9.944;2022-11-04T01:04:59;99788.00;;;11.80
17142;BMP180;32805;53.556;9.944;2022-11-04T01:07:27;99784.00;;;11.90
17142;BMP180;32805;53.556;9.944;2022-11-04T01:09:55;99779.00;;;12.00
17142;BMP180;32805;53.556;9.944;2022-11-04T01:12:22;99779.00;;;12.00
17142;BMP180;32805;53.556;9.944;2022-11-04T01:14:50;99780.00;;;11.90
17142;BMP180;32805;53.556;9.944;2022-11-04T01:17:18;99786.00;;;11.80
17142;BMP180;32805;53.556;9.944;2022-11-04T01:19:47;99778.00;;;12.00
17142;BMP180;32805;53.556;9.944;2022-11-04T01:22:14;99775.00;;;12.00
17142;BMP180;32805;53.556;9.944;2022-11-04T01:24:42;99773.00;;;12.00
17142;BMP180;32805;53.556;9.944;2022-11-04T01:27:10;99770.00;;;12.10
17142;BMP180;32805;53.556;9.944;2022-11-04T01:29:38;99767.00;;;12.10
17142;BMP180;32805;53.556;9.944;2022-11-04T01:32:05;99766.00;;;12.10
17142;BMP180;32805;53.556;9.944;2022-11-04T01:34:33;99774.00;;;12.10
17142;BMP180;32805;53.556;9.944;2022-11-04T01:37:10;99766.00;;;12.10
17142;BMP180;32805;53.556;9.944;2022-11-04T01:39:37;99765.00;;;12.00
17142;BMP180;32805;53.556;9.944;2022-11-04T01:42:05;99760.00;;;12.00
17142;BMP180;32805;53.556;9.944;2022-11-04T01:44:49;99772.00;;;11.90
17142;BMP180;32805;53.556;9.944;2022-11-04T01:47:19;99768.00;;;12.00
17142;BMP180;32805;53.556;9.944;2022-11-04T01:49:49;99770.00;;;12.00
17142;BMP180;32805;53.556;9.944;2022-11-04T01:52:24;99761.00;;;12.20
17142;BMP180;32805;53.556;9.944;2022-11-04T01:54:55;99763.00;;;12.20
17142;BMP180;32805;53.556;9.944;2022-11-04T01:57:27;99759.00;;;12.20
17142;BMP180;32805;53.556;9.944;2022-11-04T02:00:00;99748.00;;;12.10
17142;BMP180;32805;53.556;9.944;2022-11-04T02:02:45;99735.00;;;11.80
17142;BMP180;32805;53.556;9.944;2022-11-04T02:05:15;99730.00;;;12.00
17142;BMP180;32805;53.556;9.944;2022-11-04T02:07:47;99741.00;;;12.10
17142;BMP180;32805;53.556;9.944;2022-11-04T02:10:17;99734.00;;;12.20
17142;BMP180;32805;53.556;9.944;2022-11-04T02:12:46;99742.00;;;12.20
17142;BMP180;32805;53.556;9.944;2022-11-04T02:15:19;99742.00;;;12.30
17142;BMP180;32805;53.556;9.944;2022-11-04T02:18:04;99752.00;;;12.40
17142;BMP180;32805;53.556;9.944;2022-11-04T02:20:53;99759.00;;;12.20
17142;BMP180;32805;53.556;9.944;2022-11-04T02:29:58;99753.00;;;12.20
17142;BMP180;32805;53.556;9.944;2022-11-04T02:32:36;99743.00;;;12.10
17142;BMP180;32805;53.556;9.944;2022-11-04T02:35:10;99743.00;;;11.90
17142;BMP180;32805;53.556;9.944;2022-11-04T02:37:47;99740.00;;;12.00
17142;BMP180;32805;53.556;9.944;2022-11-04T02:40:25;99733.00;;;12.10
17142;BMP180;32805;53.556;9.944;2022-11-04T02:42:57;99747.00;;;12.00
17142;BMP180;32805;53.556;9.944;2022-11-04T02:45:33;99745.00;;;12.10
17142;BMP180;32805;53.556;9.944;2022-11-04T02:48:06;99758.00;;;12.00
17142;BMP180;32805;53.556;9.944;2022-11-04T02:50:40;99748.00;;;12.20
17142;BMP180;32805;53.556;9.944;2022-11-04T02:53:13;99743.00;;;12.10
17142;BMP180;32805;53.556;9.944;2022-11-04T02:55:44;99755.00;;;12.00
17142;BMP180;32805;53.556;9.944;2022-11-04T02:58:14;99766.00;;;12.00
17142;BMP180;32805;53.556;9.944;2022-11-04T03:00:45;99760.00;;;12.10
17142;BMP180;32805;53.556;9.944;2022-11-04T03:03:17;99763.00;;;12.10
17142;BMP180;32805;53.556;9.944;2022-11-04T03:05:48;99773.00;;;12.00
17142;BMP180;32805;53.556;9.944;2022-11-04T03:08:24;99768.00;;;12.30
17142;BMP180;32805;53.556;9.944;2022-11-04T03:10:58;99762.00;;;12.10
17142;BMP180;32805;53.556;9.944;2022-11-04T03:13:33;99743.00;;;12.10
17142;BMP180;32805;53.556;9.944;2022-11-04T03:16:06;99738.00;;;12.00
17142;BMP180;32805;53.556;9.944;2022-11-04T03:18:42;99743.00;;;12.10
17142;BMP180;32805;53.556;9.944;2022-11-04T03:21:15;99736.00;;;12.30
17142;BMP180;32805;53.556;9.944;2022-11-04T03:23:43;99736.00;;;12.30
17142;BMP180;32805;53.556;9.944;2022-11-04T03:26:17;99754.00;;;12.30
17142;BMP180;32805;53.556;9.944;2022-11-04T03:28:51;99745.00;;;12.60
17142;BMP180;32805;53.556;9.944;2022-11-04T03:31:30;99761.00;;;12.40
17142;BMP180;32805;53.556;9.944;2022-11-04T03:34:02;99767.00;;;12.50
17142;BMP180;32805;53.556;9.944;2022-11-04T03:36:30;99773.00;;;12.60
17142;BMP180;32805;53.556;9.944;2022-11-04T03:38:58;99769.00;;;12.70
17142;BMP180;32805;53.556;9.944;2022-11-04T03:41:30;99771.00;;;12.40
17142;BMP180;32805;53.556;9.944;2022-11-04T03:43:59;99760.00;;;12.50
17142;BMP180;32805;53.556;9.944;2022-11-04T03:46:28;99759.00;;;12.70
17142;BMP180;32805;53.556;9.944;2022-11-04T03:48:57;99759.00;;;12.60
17142;BMP180;32805;53.556;9.944;2022-11-04T03:51:25;99742.00;;;12.50
17142;BMP180;32805;53.556;9.944;2022-11-04T03:53:53;99756.00;;;12.60
17142;BMP180;32805;53.556;9.944;2022-11-04T03:56:39;99761.00;;;12.60
17142;BMP180;32805;53.556;9.944;2022-11-04T03:59:29;99759.00;;;12.70
17142;BMP180;32805;53.556;9.944;2022-11-04T04:02:08;99769.00;;;12.70
17142;BMP180;32805;53.556;9.944;2022-11-04T04:04:40;99759.00;;;12.60
17142;BMP180;32805;53.556;9.944;2022-11-04T04:07:12;99770.00;;;12.60
17142;BMP180;32805;53.556;9.944;2022-11-04T04:09:44;99771.00;;;12.70
17142;BMP180;32805;53.556;9.944;2022-11-04T04:12:19;99770.00;;;12.60
17142;BMP180;32805;53.556;9.944;2022-11-04T04:14:53;99767.00;;;12.40
17142;BMP180;32805;53.556;9.944;2022-11-04T04:17:33;99772.00;;;12.60
17142;BMP180;32805;53.556;9.944;2022-11-04T04:20:05;99785.00;;;12.60
17142;BMP180;32805;53.556;9.944;2022-11-04T04:22:36;99790.00;;;12.60
17142;BMP180;32805;53.556;9.944;2022-11-04T04:25:09;99790.00;;;12.60
17142;BMP180;32805;53.556;9.944;2022-11-04T04:27:57;99795.00;;;12.50
17142;BMP180;32805;53.556;9.944;2022-11-04T04:30:25;99800.00;;;12.70
17142;BMP180;32805;53.556;9.944;2022-11-04T04:32:58;99802.00;;;12.60
17142;BMP180;32805;53.556;9.944;2022-11-04T04:35:29;99806.00;;;12.50
17142;BMP180;32805;53.556;9.944;2022-11-04T04:38:14;99798.00;;;12.50
17142;BMP180;32805;53.556;9.944;2022-11-04T04:41:09;99829.00;;;12.50
17142;BMP180;32805;53.556;9.944;2022-11-04T04:43:56;99827.00;;;12.50
17142;BMP180;32805;53.556;9.944;2022-11-04T04:46:43;99817.00;;;12.30
17142;BMP180;32805;53.556;9.944;2022-11-04T04:49:13;99836.00;;;12.30
17142;BMP180;32805;53.556;9.944;2022-11-04T04:51:43;99837.00;;;12.40
17142;BMP180;32805;53.556;9.944;2022-11-04T04:54:12;99839.00;;;12.50
17142;BMP180;32805;53.556;9.944;2022-11-04T04:56:39;99845.00;;;12.30
17142;BMP180;32805;53.556;9.944;2022-11-04T04:59:07;99846.00;;;12.30
17142;BMP180;32805;53.556;9.944;2022-11-04T05:01:35;99857.00;;;12.30
17142;BMP180;32805;53.556;9.944;2022-11-04T05:04:03;99852.00;;;12.50
17142;BMP180;32805;53.556;9.944;2022-11-04T05:06:35;99860.00;;;12.40
17142;BMP180;32805;53.556;9.944;2022-11-04T05:09:03;99854.00;;;12.50
17142;BMP180;32805;53.556;9.944;2022-11-04T05:11:31;99864.00;;;12.60
17142;BMP180;32805;53.556;9.944;2022-11-04T05:13:59;99866.00;;;12.50
17142;BMP180;32805;53.556;9.944;2022-11-04T05:16:26;99882.00;;;12.40
17142;BMP180;32805;53.556;9.944;2022-11-04T05:18:55;99894.00;;;12.10
17142;BMP180;32805;53.556;9.944;2022-11-04T05:21:25;99895.00;;;12.20
17142;BMP180;32805;53.556;9.944;2022-11-04T05:23:54;99896.00;;;12.30
17142;BMP180;32805;53.556;9.944;2022-11-04T05:26:21;99886.00;;;12.20
17142;BMP180;32805;53.556;9.944;2022-11-04T05:28:49;99893.00;;;12.30
17142;BMP180;32805;53.556;9.944;2022-11-04T05:31:17;99901.00;;;12.40
17142;BMP180;32805;53.556;9.944;2022-11-04T05:33:44;99902.00;;;12.40
17142;BMP180;32805;53.556;9.944;2022-11-04T05:36:13;99906.00;;;12.30
17142;BMP180;32805;53.556;9.944;2022-11-04T05:38:42;99887.00;;;12.40
17142;BMP180;32805;53.556;9.944;2022-11-04T05:41:11;99906.00;;;12.30
17142;BMP180;32805;53.556;9.944;2022-11-04T05:43:51;99913.00;;;12.20
17142;BMP180;32805;53.556;9.944;2022-11-04T05:46:19;99912.00;;;12.10
17142;BMP180;32805;53.556;9.944;2022-11-04T05:48:46;99902.00;;;12.10
17142;BMP180;32805;53.556;9.944;2022-11-04T05:51:15;99923.00;;;12.30
17142;BMP180;32805;53.556;9.944;2022-11-04T05:53:43;99923.00;;;12.40
17142;BMP180;32805;53.556;9.944;2022-11-04T05:56:12;99919.00;;;12.40
17142;BMP180;32805;53.556;9.944;2022-11-04T05:58:40;99921.00;;;12.20
17142;BMP180;32805;53.556;9.944;2022-11-04T06:01:13;99928.00;;;12.20
17142;BMP180;32805;53.556;9.944;2022-11-04T06:03:41;99942.00;;;12.40
17142;BMP180;32805;53.556;9.944;2022-11-04T06:06:09;99939.00;;;12.20
17142;BMP180;32805;53.556;9.944;2022-11-04T06:08:36;99946.00;;;12.10
17142;BMP180;32805;53.556;9.944;2022-11-04T06:11:12;99948.00;;;12.20
17142;BMP180;32805;53.556;9.944;2022-11-04T06:13:39;99952.00;;;12.30
17142;BMP180;32805;53.556;9.944;2022-11-04T06:16:07;99951.00;;;12.10
17142;BMP180;32805;53.556;9.944;2022-11-04T06:18:35;99958.00;;;12.00
17142;BMP180;32805;53.556;9.944;2022-11-04T06:21:17;99964.00;;;12.00
17142;BMP180;32805;53.556;9.944;2022-11-04T06:23:47;99970.00;;;12.00
17142;BMP180;32805;53.556;9.944;2022-11-04T06:26:18;99970.00;;;12.10
17142;BMP180;32805;53.556;9.944;2022-11-04T06:28:52;99964.00;;;12.20
17142;BMP180;32805;53.556;9.944;2022-11-04T06:31:20;99981.00;;;12.10
17142;BMP180;32805;53.556;9.944;2022-11-04T06:33:48;99970.00;;;12.20
17142;BMP180;32805;53.556;9.944;2022-11-04T06:36:16;99991.00;;;12.00
17142;BMP180;32805;53.556;9.944;2022-11-04T06:38:44;99983.00;;;11.90
17142;BMP180;32805;53.556;9.944;2022-11-04T06:41:14;99974.00;;;11.90
17142;BMP180;32805;53.556;9.944;2022-11-04T06:43:43;99980.00;;;12.00
17142;BMP180;32805;53.556;9.944;2022-11-04T06:46:26;99995.00;;;12.00
17142;BMP180;32805;53.556;9.944;2022-11-04T06:48:54;99982.00;;;11.80
17142;BMP180;32805;53.556;9.944;2022-11-04T06:51:23;100003.00;;;11.90
17142;BMP180;32805;53.556;9.944;2022-11-04T06:53:51;100003.00;;;12.10
17142;BMP180;32805;53.556;9.944;2022-11-04T06:56:18;100004.00;;;12.10
17142;BMP180;32805;53.556;9.944;2022-11-04T06:58:48;100000.00;;;12.00
17142;BMP180;32805;53.556;9.944;2022-11-04T07:01:17;99994.00;;;12.10
17142;BMP180;32805;53.556;9.944;2022-11-04T07:03:48;100001.00;;;12.10
17142;BMP180;32805;53.556;9.944;2022-11-04T07:06:16;100013.00;;;12.20
17142;BMP180;32805;53.556;9.944;2022-11-04T07:08:48;100017.00;;;12.20
17142;BMP180;32805;53.556;9.944;2022-11-04T07:11:17;100031.00;;;12.10
17142;BMP180;32805;53.556;9.944;2022-11-04T07:13:48;100021.00;;;12.10
17142;BMP180;32805;53.556;9.944;2022-11-04T07:16:17;100030.00;;;12.00
17142;BMP180;32805;53.556;9.944;2022-11-04T07:18:46;100033.00;;;12.00
17142;BMP180;32805;53.556;9.944;2022-11-04T07:21:14;100046.00;;;11.90
17142;BMP180;32805;53.556;9.944;2022-11-04T07:23:44;100050.00;;;12.00
17142;BMP180;32805;53.556;9.944;2022-11-04T07:26:13;100060.00;;;12.00
17142;BMP180;32805;53.556;9.944;2022-11-04T07:28:40;100074.00;;;11.70
17142;BMP180;32805;53.556;9.944;2022-11-04T07:31:12;100067.00;;;11.80
17142;BMP180;32805;53.556;9.944;2022-11-04T07:33:40;100093.00;;;11.60
17142;BMP180;32805;53.556;9.944;2022-11-04T07:36:11;100081.00;;;11.70
17142;BMP180;32805;53.556;9.944;2022-11-04T07:38:39;100086.00;;;11.70
17142;BMP180;32805;53.556;9.944;2022-11-04T07:41:07;100085.00;;;11.70
17142;BMP180;32805;53.556;9.944;2022-11-04T07:43:34;100095.00;;;11.90
17142;BMP180;32805;53.556;9.944;2022-11-04T07:46:04;100103.00;;;11.90
17142;BMP180;32805;53.556;9.944;2022-11-04T07:48:34;100107.00;;;12.00
17142;BMP180;32805;53.556;9.944;2022-11-04T07:51:03;100097.00;;;11.80
17142;BMP180;32805;53.556;9.944;2022-11-04T07:53:31;100092.00;;;11.80
17142;BMP180;32805;53.556;9.944;2022-11-04T07:56:02;100085.00;;;11.70
17142;BMP180;32805;53.556;9.944;2022-11-04T07:58:30;100100.00;;;11.70
17142;BMP180;32805;53.556;9.944;2022-11-04T08:00:59;100089.00;;;11.80
17142;BMP180;32805;53.556;9.944;2022-11-04T08:03:27;100100.00;;;12.00
17142;BMP180;32805;53.556;9.944;2022-11-04T08:05:57;100115.00;;;12.10
17142;BMP180;32805;53.556;9.944;2022-11-04T08:08:25;100127.00;;;12.00
17142;BMP180;32805;53.556;9.944;2022-11-04T08:10:54;100115.00;;;12.10
17142;BMP180;32805;53.556;9.944;2022-11-04T08:13:26;100108.00;;;11.90
17142;BMP180;32805;53.556;9.944;2022-11-04T08:15:54;100107.00;;;12.10
17142;BMP180;32805;53.556;9.944;2022-11-04T08:18:22;100115.00;;;12.20
17142;BMP180;32805;53.556;9.944;2022-11-04T08:20:50;100125.00;;;12.30
17142;BMP180;32805;53.556;9.944;2022-11-04T08:23:20;100127.00;;;12.40
17142;BMP180;32805;53.556;9.944;2022-11-04T08:25:48;100115.00;;;12.30
17142;BMP180;32805;53.556;9.944;2022-11-04T08:28:16;100120.00;;;12.30
17142;BMP180;32805;53.556;9.944;2022-11-04T08:30:51;100129.00;;;12.20
17142;BMP180;32805;53.556;9.944;2022-11-04T08:33:20;100118.00;;;12.20
17142;BMP180;32805;53.556;9.944;2022-11-04T08:35:47;100111.00;;;12.30
17142;BMP180;32805;53.556;9.944;2022-11-04T08:38:15;100133.00;;;12.30
17142;BMP180;32805;53.556;9.944;2022-11-04T08:40:44;100123.00;;;12.30
17142;BMP180;32805;53.556;9.944;2022-11-04T08:43:12;100131.00;;;12.30
17142;BMP180;32805;53.556;9.944;2022-11-04T08:45:41;100130.00;;;12.40
17142;BMP180;32805;53.556;9.944;2022-11-04T08:48:10;100126.00;;;12.60
17142;BMP180;32805;53.556;9.944;2022-11-04T08:50:38;100125.00;;;12.60
17142;BMP180;32805;53.556;9.944;2022-11-04T08:53:07;100130.00;;;12.60
17142;BMP180;32805;53.556;9.944;2022-11-04T08:55:35;100134.00;;;12.40
17142;BMP180;32805;53.556;9.944;2022-11-04T08:58:04;100147.00;;;12.30
17142;BMP180;32805;53.556;9.944;2022-11-04T09:00:33;100145.00;;;12.10
17142;BMP180;32805;53.556;9.944;2022-11-04T09:03:02;100143.00;;;12.30
17142;BMP180;32805;53.556;9.944;2022-11-04T09:05:30;100139.00;;;12.40
17142;BMP180;32805;53.556;9.944;2022-11-04T09:07:59;100134.00;;;12.50
17142;BMP180;32805;53.556;9.944;2022-11-04T09:10:27;100139.00;;;12.50
17142;BMP180;32805;53.556;9.944;2022-11-04T09:12:55;100143.00;;;12.50
17142;BMP180;32805;53.556;9.944;2022-11-04T09:15:24;100152.00;;;12.30
17142;BMP180;32805;53.556;9.944;2022-11-04T09:17:52;100158.00;;;12.40
17142;BMP180;32805;53.556;9.944;2022-11-04T09:20:20;100159.00;;;12.50
17142;BMP180;32805;53.556;9.944;2022-11-04T09:22:47;100154.00;;;12.40
17142;BMP180;32805;53.556;9.944;2022-11-04T09:25:16;100165.00;;;12.40
17142;BMP180;32805;53.556;9.944;2022-11-04T09:27:45;100176.00;;;12.50
17142;BMP180;32805;53.556;9.944;2022-11-04T09:30:12;100176.00;;;12.20
17142;BMP180;32805;53.556;9.944;2022-11-04T09:32:42;100184.00;;;12.30
17142;BMP180;32805;53.556;9.944;2022-11-04T09:35:15;100178.00;;;12.40
17142;BMP180;32805;53.556;9.944;2022-11-04T09:37:43;100186.00;;;12.10
17142;BMP180;32805;53.556;9.944;2022-11-04T09:40:15;100189.00;;;12.00
17142;BMP180;32805;53.556;9.944;2022-11-04T09:42:54;100175.00;;;12.10
17142;BMP180;32805;53.556;9.944;2022-11-04T09:45:28;100177.00;;;12.10
17142;BMP180;32805;53.556;9.944;2022-11-04T09:48:02;100191.00;;;12.20
17142;BMP180;32805;53.556;9.944;2022-11-04T09:50:36;100179.00;;;12.30
17142;BMP180;32805;53.556;9.944;2022-11-04T09:53:13;100206.00;;;12.50
17142;BMP180;32805;53.556;9.944;2022-11-04T09:55:49;100213.00;;;12.50
17142;BMP180;32805;53.556;9.944;2022-11-04T09:58:17;100205.00;;;12.50
17142;BMP180;32805;53.556;9.944;2022-11-04T10:00:49;100206.00;;;12.30
17142;BMP180;32805;53.556;9.944;2022-11-04T10:03:29;100207.00;;;12.20
17142;BMP180;32805;53.556;9.944;2022-11-04T10:06:15;100220.00;;;12.20
17142;BMP180;32805;53.556;9.944;2022-11-04T10:08:56;100226.00;;;12.20
17142;BMP180;32805;53.556;9.944;2022-11-04T10:11:35;100223.00;;;12.10
17142;BMP180;32805;53.556;9.944;2022-11-04T10:14:31;100225.00;;;11.90
17142;BMP180;32805;53.556;9.944;2022-11-04T10:17:26;100219.00;;;12.10
17142;BMP180;32805;53.556;9.944;2022-11-04T10:20:13;100204.00;;;11.90
17142;BMP180;32805;53.556;9.944;2022-11-04T10:22:54;100211.00;;;12.00
17142;BMP180;32805;53.556;9.944;2022-11-04T10:25:26;100205.00;;;11.80
17142;BMP180;32805;53.556;9.944;2022-11-04T10:27:54;100210.00;;;12.10
17142;BMP180;32805;53.556;9.944;2022-11-04T10:30:24;100208.00;;;12.30
17142;BMP180;32805;53.556;9.944;2022-11-04T10:33:02;100201.00;;;12.20
17142;BMP180;32805;53.556;9.944;2022-11-04T10:35:36;100206.00;;;12.30
17142;BMP180;32805;53.556;9.944;2022-11-04T10:38:18;100197.00;;;12.10
17142;BMP180;32805;53.556;9.944;2022-11-04T10:40:48;100190.00;;;11.90
17142;BMP180;32805;53.556;9.944;2022-11-04T10:43:20;100199.00;;;11.80
17142;BMP180;32805;53.556;9.944;2022-11-04T10:45:59;100188.00;;;11.90
17142;BMP180;32805;53.556;9.944;2022-11-04T10:48:31;100200.00;;;11.80
17142;BMP180;32805;53.556;9.944;2022-11-04T10:51:04;100178.00;;;11.80
17142;BMP180;32805;53.556;9.944;2022-11-04T10:53:32;100193.00;;;12.00
17142;BMP180;32805;53.556;9.944;2022-11-04T10:56:03;100201.00;;;12.00
17142;BMP180;32805;53.556;9.944;2022-11-04T10:58:35;100191.00;;;12.00
17142;BMP180;32805;53.556;9.944;2022-11-04T11:01:25;100205.00;;;12.00
17142;BMP180;32805;53.556;9.944;2022-11-04T11:03:54;100180.00;;;12.20
17142;BMP180;32805;53.556;9.944;2022-11-04T11:06:26;100206.00;;;12.10
17142;BMP180;32805;53.556;9.944;2022-11-04T11:08:58;100217.00;;;12.30
17142;BMP180;32805;53.556;9.944;2022-11-04T11:11:38;100216.00;;;12.30
17142;BMP180;32805;53.556;9.944;2022-11-04T11:14:17;100215.00;;;12.30
17142;BMP180;32805;53.556;9.944;2022-11-04T11:16:45;100227.00;;;12.10
17142;BMP180;32805;53.556;9.944;2022-11-04T11:19:16;100237.00;;;12.00
17142;BMP180;32805;53.556;9.944;2022-11-04T11:21:46;100233.00;;;12.00
17142;BMP180;32805;53.556;9.944;2022-11-04T11:24:19;100250.00;;;12.10
17142;BMP180;32805;53.556;9.944;2022-11-04T11:26:49;100259.00;;;12.10
17142;BMP180;32805;53.556;9.944;2022-11-04T11:29:21;100269.00;;;12.30
17142;BMP180;32805;53.556;9.944;2022-11-04T11:31:52;100276.00;;;12.30
17142;BMP180;32805;53.556;9.944;2022-11-04T11:34:23;100270.00;;;12.50
17142;BMP180;32805;53.556;9.944;2022-11-04T11:36:55;100267.00;;;12.70
17142;BMP180;32805;53.556;9.944;2022-11-04T11:39:25;100250.00;;;12.80
17142;BMP180;32805;53.556;9.944;2022-11-04T11:41:58;100269.00;;;12.80
17142;BMP180;32805;53.556;9.944;2022-11-04T11:44:29;100268.00;;;12.80
17142;BMP180;32805;53.556;9.944;2022-11-04T11:47:01;100271.00;;;12.70
17142;BMP180;32805;53.556;9.944;2022-11-04T11:49:31;100273.00;;;12.60
17142;BMP180;32805;53.556;9.944;2022-11-04T11:52:25;100280.00;;;12.70
17142;BMP180;32805;53.556;9.944;2022-11-04T11:54:57;100281.00;;;12.80
17142;BMP180;32805;53.556;9.944;2022-11-04T11:57:36;100278.00;;;12.90
17142;BMP180;32805;53.556;9.944;2022-11-04T12:00:10;100275.00;;;12.80
17142;BMP180;32805;53.556;9.944;2022-11-04T12:03:07;100287.00;;;12.90
17142;BMP180;32805;53.556;9.944;2022-11-04T12:05:44;100257.00;;;12.90
17142;BMP180;32805;53.556;9.944;2022-11-04T12:11:48;100288.00;;;12.80
17142;BMP180;32805;53.556;9.944;2022-11-04T12:14:22;100277.00;;;12.80
17142;BMP180;32805;53.556;9.944;2022-11-04T12:16:58;100282.00;;;12.70
17142;BMP180;32805;53.556;9.944;2022-11-04T12:19:39;100282.00;;;12.70
17142;BMP180;32805;53.556;9.944;2022-11-04T12:22:21;100288.00;;;12.90
17142;BMP180;32805;53.556;9.944;2022-11-04T12:25:00;100296.00;;;12.80
17142;BMP180;32805;53.556;9.944;2022-11-04T12:27:35;100292.00;;;12.70
17142;BMP180;32805;53.556;9.944;2022-11-04T12:30:07;100291.00;;;12.80
17142;BMP180;32805;53.556;9.944;2022-11-04T12:32:47;100292.00;;;12.80
17142;BMP180;32805;53.556;9.944;2022-11-04T12:35:25;100295.00;;;12.90
17142;BMP180;32805;53.556;9.944;2022-11-04T12:38:15;100306.00;;;12.80
17142;BMP180;32805;53.556;9.944;2022-11-04T12:40:51;100300.00;;;12.80
17142;BMP180;32805;53.556;9.944;2022-11-04T12:43:44;100308.00;;;12.90
17142;BMP180;32805;53.556;9.944;2022-11-04T12:46:26;100300.00;;;12.80
17142;BMP180;32805;53.556;9.944;2022-11-04T12:49:33;100301.00;;;12.90
17142;BMP180;32805;53.556;9.944;2022-11-04T12:52:16;100303.00;;;12.90
17142;BMP180;32805;53.556;9.944;2022-11-04T12:55:13;100306.00;;;12.80
17142;BMP180;32805;53.556;9.944;2022-11-04T12:57:48;100307.00;;;12.80
17142;BMP180;32805;53.556;9.944;2022-11-04T13:00:20;100312.00;;;12.80
17142;BMP180;32805;53.556;9.944;2022-11-04T13:02:55;100312.00;;;12.90
17142;BMP180;32805;53.556;9.944;2022-11-04T13:05:31;100323.00;;;13.00
17142;BMP180;32805;53.556;9.944;2022-11-04T13:08:04;100309.00;;;13.00
17142;BMP180;32805;53.556;9.944;2022-11-04T13:10:42;100310.00;;;13.00
17142;BMP180;32805;53.556;9.944;2022-11-04T13:13:17;100315.00;;;13.00
17142;BMP180;32805;53.556;9.944;2022-11-04T13:15:49;100326.00;;;12.90
17142;BMP180;32805;53.556;9.944;2022-11-04T13:18:19;100323.00;;;12.90
17142;BMP180;32805;53.556;9.944;2022-11-04T13:20:56;100320.00;;;12.80
17142;BMP180;32805;53.556;9.944;2022-11-04T13:23:40;100330.00;;;12.90
17142;BMP180;32805;53.556;9.944;2022-11-04T13:26:13;100333.00;;;12.90
17142;BMP180;32805;53.556;9.944;2022-11-04T13:28:44;100340.00;;;12.90
17142;BMP180;32805;53.556;9.944;2022-11-04T13:31:18;100345.00;;;12.90
17142;BMP180;32805;53.556;9.944;2022-11-04T13:34:10;100359.00;;;12.80
17142;BMP180;32805;53.556;9.944;2022-11-04T13:36:53;100355.00;;;12.90
17142;BMP180;32805;53.556;9.944;2022-11-04T13:39:27;100351.00;;;12.90
17142;BMP180;32805;53.556;9.944;2022-11-04T13:42:40;100359.00;;;12.90
17142;BMP180;32805;53.556;9.944;2022-11-04T13:45:16;100362.00;;;12.90
17142;BMP180;32805;53.556;9.944;2022-11-04T13:47:49;100375.00;;;12.80
17142;BMP180;32805;53.556;9.944;2022-11-04T13:50:35;100378.00;;;12.90
17142;BMP180;32805;53.556;9.944;2022-11-04T13:53:05;100381.00;;;12.90
17142;BMP180;32805;53.556;9.944;2022-11-04T13:55:35;100390.00;;;12.80
17142;BMP180;32805;53.556;9.944;2022-11-04T13:58:20;100391.00;;;13.00
17142;BMP180;32805;53.556;9.944;2022-11-04T14:01:12;100395.00;;;12.90
17142;BMP180;32805;53.556;9.944;2022-11-04T14:03:51;100399.00;;;12.90
17142;BMP180;32805;53.556;9.944;2022-11-04T14:06:48;100396.00;;;13.00
17142;BMP180;32805;53.556;9.944;2022-11-04T14:09:34;100407.00;;;13.00
17142;BMP180;32805;53.556;9.944;2022-11-04T14:12:26;100404.00;;;12.90
17142;BMP180;32805;53.556;9.944;2022-11-04T14:15:03;100410.00;;;12.90
17142;BMP180;32805;53.556;9.944;2022-11-04T14:18:00;100411.00;;;12.90
17142;BMP180;32805;53.556;9.944;2022-11-04T14:20:30;100416.00;;;12.90
17142;BMP180;32805;53.556;9.944;2022-11-04T14:22:59;100418.00;;;12.90
17142;BMP180;32805;53.556;9.944;2022-11-04T14:25:33;100421.00;;;12.80
17142;BMP180;32805;53.556;9.944;2022-11-04T14:28:14;100404.00;;;12.80
17142;BMP180;32805;53.556;9.944;2022-11-04T14:30:49;100418.00;;;12.90
17142;BMP180;32805;53.556;9.944;2022-11-04T14:33:38;100431.00;;;12.80
17142;BMP180;32805;53.556;9.944;2022-11-04T14:36:22;100426.00;;;12.80
17142;BMP180;32805;53.556;9.944;2022-11-04T14:38:56;100424.00;;;12.80
17142;BMP180;32805;53.556;9.944;2022-11-04T14:41:48;100429.00;;;12.70
17142;BMP180;32805;53.556;9.944;2022-11-04T14:44:30;100441.00;;;12.70
17142;BMP180;32805;53.556;9.944;2022-11-04T14:47:01;100436.00;;;12.80